sensor_id;sensor_type;location;lat;lon;timestamp;P1;durP1;ratioP1;P2;durP2;ratioP2
8532;SDS011;4304;53.876;10.662;2023-02-15T00:00:22;27.85;;;12.65;;
8532;SDS011;4304;53.876;10.662;2023-02-15T00:02:48;31.10;;;12.93;;
8532;SDS011;4304;53.876;10.662;2023-02-15T00:05:13;28.27;;;12.07;;
8532;SDS011;4304;53.876;10.662;2023-02-15T00:07:38;33.88;;;12.63;;
8532;SDS011;4304;53.876;10.662;2023-02-15T00:10:04;27.45;;;11.30;;
8532;SDS011;4304;53.876;10.662;2023-02-15T00:12:30;35.15;;;12.00;;
8532;SDS011;4304;53.876;10.662;2023-02-15T00:14:55;29.08;;;12.23;;
8532;SDS011;4304;53.876;10.662;2023-02-15T00:17:21;28.50;;;12.00;;
8532;SDS011;4304;53.876;10.662;2023-02-15T00:19:46;32.75;;;12.10;;
8532;SDS011;4304;53.876;10.662;2023-02-15T00:22:11;36.75;;;11.77;;
8532;SDS011;4304;53.876;10.662;2023-02-15T00:24:36;32.33;;;12.35;;
8532;SDS011;4304;53.876;10.662;2023-02-15T00:27:02;28.00;;;12.35;;
8532;SDS011;4304;53.876;10.662;2023-02-15T00:29:27;36.53;;;14.35;;
8532;SDS011;4304;53.876;10.662;2023-02-15T00:31:53;32.05;;;12.77;;
8532;SDS011;4304;53.876;10.662;2023-02-15T00:34:22;34.50;;;13.05;;
8532;SDS011;4304;53.876;10.662;2023-02-15T00:36:49;29.20;;;11.40;;
8532;SDS011;4304;53.876;10.662;2023-02-15T00:39:15;30.83;;;11.18;;
8532;SDS011;4304;53.876;10.662;2023-02-15T00:41:41;31.13;;;13.68;;
8532;SDS011;4304;53.876;10.662;2023-02-15T00:44:07;29.17;;;11.65;;
8532;SDS011;4304;53.876;10.662;2023-02-15T00:46:33;30.80;;;12.10;;
8532;SDS011;4304;53.876;10.662;2023-02-15T00:48:58;32.65;;;12.88;;
8532;SDS011;4304;53.876;10.662;2023-02-15T00:51:24;33.63;;;12.82;;
8532;SDS011;4304;53.876;10.662;2023-02-15T00:53:50;33.95;;;12.43;;
8532;SDS011;4304;53.876;10.662;2023-02-15T00:56:15;30.98;;;12.20;;
8532;SDS011;4304;53.876;10.662;2023-02-15T00:58:41;28.10;;;11.50;;
8532;SDS011;4304;53.876;10.662;2023-02-15T01:01:14;30.45;;;12.20;;
8532;SDS011;4304;53.876;10.662;2023-02-15T01:03:41;34.17;;;13.45;;
8532;SDS011;4304;53.876;10.662;2023-02-15T01:06:07;30.73;;;11.80;;
8532;SDS011;4304;53.876;10.662;2023-02-15T01:08:33;35.17;;;13.15;;
8532;SDS011;4304;53.876;10.662;2023-02-15T01:11:02;30.42;;;12.13;;
8532;SDS011;4304;53.876;10.662;2023-02-15T01:13:32;30.85;;;13.80;;
8532;SDS011;4304;53.876;10.662;2023-02-15T01:15:58;32.35;;;14.05;;
8532;SDS011;4304;53.876;10.662;2023-02-15T01:18:23;38.60;;;13.77;;
8532;SDS011;4304;53.876;10.662;2023-02-15T01:20:49;46.38;;;15.48;;
8532;SDS011;4304;53.876;10.662;2023-02-15T01:23:14;34.05;;;14.25;;
8532;SDS011;4304;53.876;10.662;2023-02-15T01:25:39;50.20;;;16.98;;
8532;SDS011;4304;53.876;10.662;2023-02-15T01:28:05;45.07;;;15.80;;
8532;SDS011;4304;53.876;10.662;2023-02-15T01:30:30;36.92;;;13.55;;
8532;SDS011;4304;53.876;10.662;2023-02-15T01:32:56;37.17;;;12.85;;
8532;SDS011;4304;53.876;10.662;2023-02-15T01:35:22;30.60;;;13.07;;
8532;SDS011;4304;53.876;10.662;2023-02-15T01:37:48;31.75;;;12.73;;
8532;SDS011;4304;53.876;10.662;2023-02-15T01:40:15;34.92;;;12.50;;
8532;SDS011;4304;53.876;10.662;2023-02-15T01:42:41;25.45;;;12.02;;
8532;SDS011;4304;53.876;10.662;2023-02-15T01:45:16;30.35;;;12.68;;
8532;SDS011;4304;53.876;10.662;2023-02-15T01:50:17;30.98;;;13.07;;
8532;SDS011;4304;53.876;10.662;2023-02-15T01:52:48;27.63;;;12.23;;
8532;SDS011;4304;53.876;10.662;2023-02-15T01:55:20;30.80;;;12.10;;
8532;SDS011;4304;53.876;10.662;2023-02-15T01:57:48;33.75;;;13.98;;
8532;SDS011;4304;53.876;10.662;2023-02-15T02:00:14;28.48;;;11.75;;
8532;SDS011;4304;53.876;10.662;2023-02-15T02:02:42;27.90;;;10.80;;
8532;SDS011;4304;53.876;10.662;2023-02-15T02:08:32;30.33;;;11.90;;
8532;SDS011;4304;53.876;10.662;2023-02-15T02:10:58;35.63;;;12.80;;
8532;SDS011;4304;53.876;10.662;2023-02-15T02:13:23;27.20;;;12.90;;
8532;SDS011;4304;53.876;10.662;2023-02-15T02:16:00;31.27;;;11.57;;
8532;SDS011;4304;53.876;10.662;2023-02-15T02:18:51;29.50;;;12.10;;
8532;SDS011;4304;53.876;10.662;2023-02-15T02:24:18;29.70;;;13.20;;
8532;SDS011;4304;53.876;10.662;2023-02-15T02:35:31;23.80;;;11.43;;
8532;SDS011;4304;53.876;10.662;2023-02-15T02:43:00;33.13;;;12.67;;
8532;SDS011;4304;53.876;10.662;2023-02-15T02:45:44;31.37;;;12.20;;
8532;SDS011;4304;53.876;10.662;2023-02-15T02:48:19;34.40;;;12.18;;
8532;SDS011;4304;53.876;10.662;2023-02-15T02:50:47;25.85;;;12.15;;
8532;SDS011;4304;53.876;10.662;2023-02-15T02:53:13;28.53;;;11.57;;
8532;SDS011;4304;53.876;10.662;2023-02-15T02:55:46;31.77;;;13.35;;
8532;SDS011;4304;53.876;10.662;2023-02-15T02:58:29;29.07;;;12.10;;
8532;SDS011;4304;53.876;10.662;2023-02-15T03:01:05;32.53;;;12.80;;
8532;SDS011;4304;53.876;10.662;2023-02-15T03:03:40;25.60;;;11.33;;
8532;SDS011;4304;53.876;10.662;2023-02-15T03:06:12;36.65;;;12.05;;
8532;SDS011;4304;53.876;10.662;2023-02-15T03:08:45;28.33;;;11.73;;
8532;SDS011;4304;53.876;10.662;2023-02-15T03:11:13;32.37;;;11.97;;
8532;SDS011;4304;53.876;10.662;2023-02-15T03:13:39;29.83;;;12.93;;
8532;SDS011;4304;53.876;10.662;2023-02-15T03:16:05;29.73;;;12.80;;
8532;SDS011;4304;53.876;10.662;2023-02-15T03:19:00;29.23;;;12.10;;
8532;SDS011;4304;53.876;10.662;2023-02-15T03:21:34;30.83;;;11.73;;
8532;SDS011;4304;53.876;10.662;2023-02-15T03:24:23;34.07;;;14.60;;
8532;SDS011;4304;53.876;10.662;2023-02-15T03:26:51;34.50;;;13.27;;
8532;SDS011;4304;53.876;10.662;2023-02-15T03:29:19;29.02;;;11.98;;
8532;SDS011;4304;53.876;10.662;2023-02-15T03:31:48;29.20;;;12.73;;
8532;SDS011;4304;53.876;10.662;2023-02-15T03:34:16;32.57;;;12.33;;
8532;SDS011;4304;53.876;10.662;2023-02-15T03:37:00;33.73;;;12.43;;
8532;SDS011;4304;53.876;10.662;2023-02-15T03:39:38;29.80;;;12.93;;
8532;SDS011;4304;53.876;10.662;2023-02-15T03:42:11;30.67;;;12.60;;
8532;SDS011;4304;53.876;10.662;2023-02-15T03:45:27;26.48;;;12.05;;
8532;SDS011;4304;53.876;10.662;2023-02-15T03:47:47;32.60;;;13.23;;
8532;SDS011;4304;53.876;10.662;2023-02-15T03:53:02;28.13;;;13.00;;
8532;SDS011;4304;53.876;10.662;2023-02-15T03:55:30;36.93;;;13.43;;
8532;SDS011;4304;53.876;10.662;2023-02-15T03:57:56;37.13;;;13.13;;
8532;SDS011;4304;53.876;10.662;2023-02-15T04:00:40;35.20;;;14.37;;
8532;SDS011;4304;53.876;10.662;2023-02-15T04:03:37;33.70;;;12.87;;
8532;SDS011;4304;53.876;10.662;2023-02-15T04:06:05;38.20;;;13.70;;
8532;SDS011;4304;53.876;10.662;2023-02-15T04:08:31;41.27;;;14.80;;
8532;SDS011;4304;53.876;10.662;2023-02-15T04:11:14;48.87;;;13.87;;
8532;SDS011;4304;53.876;10.662;2023-02-15T04:13:40;54.23;;;14.13;;
8532;SDS011;4304;53.876;10.662;2023-02-15T04:16:05;63.30;;;13.80;;
8532;SDS011;4304;53.876;10.662;2023-02-15T04:18:41;47.00;;;14.20;;
8532;SDS011;4304;53.876;10.662;2023-02-15T04:21:28;39.27;;;14.40;;
8532;SDS011;4304;53.876;10.662;2023-02-15T04:24:13;87.40;;;14.27;;
8532;SDS011;4304;53.876;10.662;2023-02-15T04:26:57;64.20;;;13.17;;
8532;SDS011;4304;53.876;10.662;2023-02-15T04:29:23;83.47;;;13.10;;
8532;SDS011;4304;53.876;10.662;2023-02-15T04:31:50;53.67;;;12.93;;
8532;SDS011;4304;53.876;10.662;2023-02-15T04:34:16;76.80;;;14.87;;
8532;SDS011;4304;53.876;10.662;2023-02-15T04:36:42;66.93;;;13.80;;
8532;SDS011;4304;53.876;10.662;2023-02-15T04:39:08;67.93;;;13.07;;
8532;SDS011;4304;53.876;10.662;2023-02-15T04:41:33;66.00;;;13.67;;
8532;SDS011;4304;53.876;10.662;2023-02-15T04:43:59;69.40;;;13.17;;
8532;SDS011;4304;53.876;10.662;2023-02-15T04:46:26;102.50;;;14.40;;
8532;SDS011;4304;53.876;10.662;2023-02-15T04:48:52;82.33;;;13.37;;
8532;SDS011;4304;53.876;10.662;2023-02-15T04:51:17;140.97;;;15.10;;
8532;SDS011;4304;53.876;10.662;2023-02-15T04:53:43;88.20;;;14.17;;
8532;SDS011;4304;53.876;10.662;2023-02-15T04:56:08;118.10;;;14.07;;
8532;SDS011;4304;53.876;10.662;2023-02-15T04:58:34;100.17;;;14.23;;
8532;SDS011;4304;53.876;10.662;2023-02-15T05:01:00;111.17;;;13.00;;
8532;SDS011;4304;53.876;10.662;2023-02-15T05:03:26;89.90;;;13.57;;
8532;SDS011;4304;53.876;10.662;2023-02-15T05:05:51;102.47;;;13.50;;
8532;SDS011;4304;53.876;10.662;2023-02-15T05:08:16;93.57;;;13.33;;
8532;SDS011;4304;53.876;10.662;2023-02-15T05:10:42;49.23;;;12.70;;
8532;SDS011;4304;53.876;10.662;2023-02-15T05:13:07;106.17;;;13.70;;
8532;SDS011;4304;53.876;10.662;2023-02-15T05:15:33;95.03;;;13.07;;
8532;SDS011;4304;53.876;10.662;2023-02-15T05:17:58;107.67;;;13.87;;
8532;SDS011;4304;53.876;10.662;2023-02-15T05:20:23;83.40;;;12.93;;
8532;SDS011;4304;53.876;10.662;2023-02-15T05:22:50;83.87;;;14.17;;
8532;SDS011;4304;53.876;10.662;2023-02-15T05:25:18;95.17;;;13.20;;
8532;SDS011;4304;53.876;10.662;2023-02-15T05:28:02;82.90;;;13.07;;
8532;SDS011;4304;53.876;10.662;2023-02-15T05:30:46;110.67;;;12.50;;
8532;SDS011;4304;53.876;10.662;2023-02-15T05:33:12;122.70;;;14.57;;
8532;SDS011;4304;53.876;10.662;2023-02-15T05:35:38;71.63;;;13.37;;
8532;SDS011;4304;53.876;10.662;2023-02-15T05:38:03;91.97;;;12.87;;
8532;SDS011;4304;53.876;10.662;2023-02-15T05:40:28;70.90;;;13.53;;
8532;SDS011;4304;53.876;10.662;2023-02-15T05:42:54;60.37;;;12.47;;
8532;SDS011;4304;53.876;10.662;2023-02-15T05:45:19;89.43;;;13.43;;
8532;SDS011;4304;53.876;10.662;2023-02-15T05:47:44;39.63;;;11.43;;
8532;SDS011;4304;53.876;10.662;2023-02-15T05:50:10;51.63;;;11.53;;
8532;SDS011;4304;53.876;10.662;2023-02-15T05:52:36;57.97;;;12.17;;
8532;SDS011;4304;53.876;10.662;2023-02-15T05:55:01;51.23;;;12.80;;
8532;SDS011;4304;53.876;10.662;2023-02-15T05:57:28;48.00;;;12.17;;
8532;SDS011;4304;53.876;10.662;2023-02-15T05:59:55;75.03;;;12.33;;
8532;SDS011;4304;53.876;10.662;2023-02-15T06:02:20;58.77;;;11.83;;
8532;SDS011;4304;53.876;10.662;2023-02-15T06:04:45;29.90;;;11.77;;
8532;SDS011;4304;53.876;10.662;2023-02-15T06:07:11;86.77;;;12.63;;
8532;SDS011;4304;53.876;10.662;2023-02-15T06:09:36;27.43;;;11.07;;
8532;SDS011;4304;53.876;10.662;2023-02-15T06:12:01;62.33;;;12.13;;
8532;SDS011;4304;53.876;10.662;2023-02-15T06:14:27;67.07;;;10.67;;
8532;SDS011;4304;53.876;10.662;2023-02-15T06:16:52;44.57;;;10.83;;
8532;SDS011;4304;53.876;10.662;2023-02-15T06:19:17;89.37;;;11.87;;
8532;SDS011;4304;53.876;10.662;2023-02-15T06:21:43;78.27;;;13.90;;
8532;SDS011;4304;53.876;10.662;2023-02-15T06:24:09;30.87;;;10.20;;
8532;SDS011;4304;53.876;10.662;2023-02-15T06:26:34;57.30;;;11.33;;
8532;SDS011;4304;53.876;10.662;2023-02-15T06:29:00;61.20;;;11.37;;
8532;SDS011;4304;53.876;10.662;2023-02-15T06:31:25;60.57;;;11.47;;
8532;SDS011;4304;53.876;10.662;2023-02-15T06:33:50;49.33;;;10.37;;
8532;SDS011;4304;53.876;10.662;2023-02-15T06:36:16;42.07;;;11.30;;
8532;SDS011;4304;53.876;10.662;2023-02-15T06:38:41;59.10;;;12.83;;
8532;SDS011;4304;53.876;10.662;2023-02-15T06:41:06;69.50;;;13.07;;
8532;SDS011;4304;53.876;10.662;2023-02-15T06:43:32;82.40;;;12.90;;
8532;SDS011;4304;53.876;10.662;2023-02-15T06:45:59;65.07;;;12.10;;
8532;SDS011;4304;53.876;10.662;2023-02-15T06:48:24;76.63;;;13.77;;
8532;SDS011;4304;53.876;10.662;2023-02-15T06:50:49;69.30;;;13.67;;
8532;SDS011;4304;53.876;10.662;2023-02-15T06:53:15;52.50;;;13.13;;
8532;SDS011;4304;53.876;10.662;2023-02-15T06:55:40;45.43;;;11.20;;
8532;SDS011;4304;53.876;10.662;2023-02-15T06:58:05;80.83;;;12.43;;
8532;SDS011;4304;53.876;10.662;2023-02-15T07:00:30;57.57;;;11.07;;
8532;SDS011;4304;53.876;10.662;2023-02-15T07:02:57;38.80;;;11.00;;
8532;SDS011;4304;53.876;10.662;2023-02-15T07:05:23;74.10;;;12.73;;
8532;SDS011;4304;53.876;10.662;2023-02-15T07:07:49;62.67;;;12.00;;
8532;SDS011;4304;53.876;10.662;2023-02-15T07:10:15;39.13;;;11.63;;
8532;SDS011;4304;53.876;10.662;2023-02-15T07:12:40;36.07;;;12.00;;
8532;SDS011;4304;53.876;10.662;2023-02-15T07:15:13;79.43;;;18.27;;
8532;SDS011;4304;53.876;10.662;2023-02-15T07:17:40;73.43;;;14.43;;
8532;SDS011;4304;53.876;10.662;2023-02-15T07:20:10;69.00;;;15.50;;
8532;SDS011;4304;53.876;10.662;2023-02-15T07:22:38;45.73;;;16.17;;
8532;SDS011;4304;53.876;10.662;2023-02-15T07:25:04;47.03;;;13.83;;
8532;SDS011;4304;53.876;10.662;2023-02-15T07:27:31;45.17;;;11.53;;
8532;SDS011;4304;53.876;10.662;2023-02-15T07:29:56;46.73;;;11.37;;
8532;SDS011;4304;53.876;10.662;2023-02-15T07:32:22;31.33;;;10.50;;
8532;SDS011;4304;53.876;10.662;2023-02-15T07:34:47;41.90;;;11.90;;
8532;SDS011;4304;53.876;10.662;2023-02-15T07:37:12;59.83;;;11.20;;
8532;SDS011;4304;53.876;10.662;2023-02-15T07:39:38;26.20;;;10.00;;
8532;SDS011;4304;53.876;10.662;2023-02-15T07:42:03;49.07;;;12.40;;
8532;SDS011;4304;53.876;10.662;2023-02-15T07:44:28;23.87;;;10.13;;
8532;SDS011;4304;53.876;10.662;2023-02-15T07:46:54;36.27;;;10.57;;
8532;SDS011;4304;53.876;10.662;2023-02-15T07:49:19;31.77;;;10.27;;
8532;SDS011;4304;53.876;10.662;2023-02-15T07:51:44;39.03;;;10.33;;
8532;SDS011;4304;53.876;10.662;2023-02-15T07:54:10;75.37;;;11.73;;
8532;SDS011;4304;53.876;10.662;2023-02-15T07:56:36;47.87;;;11.80;;
8532;SDS011;4304;53.876;10.662;2023-02-15T07:59:01;51.70;;;11.40;;
8532;SDS011;4304;53.876;10.662;2023-02-15T08:01:32;38.17;;;8.90;;
8532;SDS011;4304;53.876;10.662;2023-02-15T08:04:00;43.30;;;10.80;;
8532;SDS011;4304;53.876;10.662;2023-02-15T08:06:26;51.27;;;11.10;;
8532;SDS011;4304;53.876;10.662;2023-02-15T08:08:53;50.00;;;12.07;;
8532;SDS011;4304;53.876;10.662;2023-02-15T08:11:20;62.40;;;11.43;;
8532;SDS011;4304;53.876;10.662;2023-02-15T08:16:50;76.30;;;11.73;;
8532;SDS011;4304;53.876;10.662;2023-02-15T08:21:52;55.57;;;11.83;;
8532;SDS011;4304;53.876;10.662;2023-02-15T08:24:22;61.70;;;12.33;;
8532;SDS011;4304;53.876;10.662;2023-02-15T08:26:49;33.77;;;12.30;;
8532;SDS011;4304;53.876;10.662;2023-02-15T08:29:16;49.23;;;12.30;;
8532;SDS011;4304;53.876;10.662;2023-02-15T08:31:43;74.57;;;10.77;;
8532;SDS011;4304;53.876;10.662;2023-02-15T08:34:10;76.57;;;11.23;;
8532;SDS011;4304;53.876;10.662;2023-02-15T08:36:38;36.40;;;9.53;;
8532;SDS011;4304;53.876;10.662;2023-02-15T08:39:04;32.37;;;9.63;;
8532;SDS011;4304;53.876;10.662;2023-02-15T08:41:31;49.47;;;11.73;;
8532;SDS011;4304;53.876;10.662;2023-02-15T08:44:00;53.17;;;11.27;;
8532;SDS011;4304;53.876;10.662;2023-02-15T08:46:27;47.77;;;11.67;;
8532;SDS011;4304;53.876;10.662;2023-02-15T08:48:54;48.20;;;10.73;;
8532;SDS011;4304;53.876;10.662;2023-02-15T08:51:21;65.73;;;11.03;;
8532;SDS011;4304;53.876;10.662;2023-02-15T08:53:49;51.07;;;12.07;;
8532;SDS011;4304;53.876;10.662;2023-02-15T08:56:16;51.60;;;13.17;;
8532;SDS011;4304;53.876;10.662;2023-02-15T08:58:44;45.43;;;10.43;;
8532;SDS011;4304;53.876;10.662;2023-02-15T09:01:12;63.03;;;11.33;;
8532;SDS011;4304;53.876;10.662;2023-02-15T09:03:39;51.63;;;11.83;;
8532;SDS011;4304;53.876;10.662;2023-02-15T09:06:05;62.80;;;11.03;;
8532;SDS011;4304;53.876;10.662;2023-02-15T09:08:30;28.40;;;11.20;;
8532;SDS011;4304;53.876;10.662;2023-02-15T09:11:09;41.73;;;11.77;;
8532;SDS011;4304;53.876;10.662;2023-02-15T09:13:35;50.63;;;12.00;;
8532;SDS011;4304;53.876;10.662;2023-02-15T09:16:02;68.97;;;12.60;;
8532;SDS011;4304;53.876;10.662;2023-02-15T09:18:30;41.77;;;11.10;;
8532;SDS011;4304;53.876;10.662;2023-02-15T09:21:03;41.67;;;11.70;;
8532;SDS011;4304;53.876;10.662;2023-02-15T09:23:29;88.83;;;12.17;;
8532;SDS011;4304;53.876;10.662;2023-02-15T09:25:54;27.80;;;10.00;;
8532;SDS011;4304;53.876;10.662;2023-02-15T09:28:20;41.07;;;10.17;;
8532;SDS011;4304;53.876;10.662;2023-02-15T09:30:45;29.97;;;11.67;;
8532;SDS011;4304;53.876;10.662;2023-02-15T09:33:10;35.53;;;10.63;;
8532;SDS011;4304;53.876;10.662;2023-02-15T09:35:36;32.93;;;9.67;;
8532;SDS011;4304;53.876;10.662;2023-02-15T09:38:01;30.10;;;11.15;;
8532;SDS011;4304;53.876;10.662;2023-02-15T09:40:26;37.55;;;9.93;;
8532;SDS011;4304;53.876;10.662;2023-02-15T09:43:11;47.45;;;11.13;;
8532;SDS011;4304;53.876;10.662;2023-02-15T09:45:49;73.72;;;11.18;;
8532;SDS011;4304;53.876;10.662;2023-02-15T09:51:07;25.93;;;10.47;;
8532;SDS011;4304;53.876;10.662;2023-02-15T09:56:45;43.00;;;10.63;;
8532;SDS011;4304;53.876;10.662;2023-02-15T09:59:30;24.27;;;10.20;;
8532;SDS011;4304;53.876;10.662;2023-02-15T10:02:18;22.73;;;11.23;;
8532;SDS011;4304;53.876;10.662;2023-02-15T10:05:06;35.00;;;11.63;;
8532;SDS011;4304;53.876;10.662;2023-02-15T10:15:56;28.63;;;11.93;;
8532;SDS011;4304;53.876;10.662;2023-02-15T10:18:28;34.78;;;12.35;;
8532;SDS011;4304;53.876;10.662;2023-02-15T10:26:33;43.10;;;11.98;;
8532;SDS011;4304;53.876;10.662;2023-02-15T10:42:20;36.50;;;11.52;;
8532;SDS011;4304;53.876;10.662;2023-02-15T10:45:12;44.75;;;12.55;;
8532;SDS011;4304;53.876;10.662;2023-02-15T10:51:19;24.35;;;11.48;;
8532;SDS011;4304;53.876;10.662;2023-02-15T10:54:03;26.55;;;11.18;;
8532;SDS011;4304;53.876;10.662;2023-02-15T10:59:16;39.65;;;12.68;;
8532;SDS011;4304;53.876;10.662;2023-02-15T11:02:02;33.63;;;11.80;;
8532;SDS011;4304;53.876;10.662;2023-02-15T11:04:46;32.50;;;12.10;;
8532;SDS011;4304;53.876;10.662;2023-02-15T11:07:17;26.45;;;11.57;;
8532;SDS011;4304;53.876;10.662;2023-02-15T11:09:49;32.40;;;11.38;;
8532;SDS011;4304;53.876;10.662;2023-02-15T11:12:19;31.17;;;12.32;;
8532;SDS011;4304;53.876;10.662;2023-02-15T11:17:26;30.77;;;11.20;;
8532;SDS011;4304;53.876;10.662;2023-02-15T11:22:53;39.53;;;12.48;;
8532;SDS011;4304;53.876;10.662;2023-02-15T11:25:24;29.08;;;12.35;;
8532;SDS011;4304;53.876;10.662;2023-02-15T11:27:57;34.65;;;12.35;;
8532;SDS011;4304;53.876;10.662;2023-02-15T11:30:29;36.78;;;12.95;;
8532;SDS011;4304;53.876;10.662;2023-02-15T11:33:17;39.75;;;11.40;;
8532;SDS011;4304;53.876;10.662;2023-02-15T11:35:59;31.17;;;12.88;;
8532;SDS011;4304;53.876;10.662;2023-02-15T11:38:29;25.80;;;12.23;;
8532;SDS011;4304;53.876;10.662;2023-02-15T11:41:04;27.15;;;12.80;;
8532;SDS011;4304;53.876;10.662;2023-02-15T11:46:00;25.63;;;12.73;;
8532;SDS011;4304;53.876;10.662;2023-02-15T11:48:25;41.42;;;11.48;;
8532;SDS011;4304;53.876;10.662;2023-02-15T11:50:50;33.20;;;12.90;;
8532;SDS011;4304;53.876;10.662;2023-02-15T11:53:17;38.88;;;12.85;;
8532;SDS011;4304;53.876;10.662;2023-02-15T11:55:46;24.88;;;12.50;;
8532;SDS011;4304;53.876;10.662;2023-02-15T12:01:08;28.10;;;10.80;;
8532;SDS011;4304;53.876;10.662;2023-02-15T12:06:16;23.83;;;12.07;;
8532;SDS011;4304;53.876;10.662;2023-02-15T12:09:04;36.55;;;14.85;;
8532;SDS011;4304;53.876;10.662;2023-02-15T12:11:45;41.40;;;14.80;;
8532;SDS011;4304;53.876;10.662;2023-02-15T12:14:11;50.97;;;32.65;;
8532;SDS011;4304;53.876;10.662;2023-02-15T12:21:44;24.80;;;11.95;;
8532;SDS011;4304;53.876;10.662;2023-02-15T12:24:17;25.67;;;11.48;;
8532;SDS011;4304;53.876;10.662;2023-02-15T12:26:47;30.70;;;12.25;;
8532;SDS011;4304;53.876;10.662;2023-02-15T12:29:22;23.58;;;11.00;;
8532;SDS011;4304;53.876;10.662;2023-02-15T12:31:51;26.73;;;11.85;;
8532;SDS011;4304;53.876;10.662;2023-02-15T12:36:57;26.20;;;11.75;;
8532;SDS011;4304;53.876;10.662;2023-02-15T12:44:24;23.85;;;12.18;;
8532;SDS011;4304;53.876;10.662;2023-02-15T12:49:41;27.42;;;12.85;;
8532;SDS011;4304;53.876;10.662;2023-02-15T12:54:45;23.67;;;11.73;;
8532;SDS011;4304;53.876;10.662;2023-02-15T12:59:47;27.02;;;12.82;;
8532;SDS011;4304;53.876;10.662;2023-02-15T13:02:43;32.35;;;13.88;;
8532;SDS011;4304;53.876;10.662;2023-02-15T13:05:14;34.78;;;14.88;;
8532;SDS011;4304;53.876;10.662;2023-02-15T13:07:51;33.58;;;13.75;;
8532;SDS011;4304;53.876;10.662;2023-02-15T13:10:25;29.65;;;14.10;;
8532;SDS011;4304;53.876;10.662;2023-02-15T13:12:56;25.83;;;12.60;;
8532;SDS011;4304;53.876;10.662;2023-02-15T13:15:35;33.15;;;13.63;;
8532;SDS011;4304;53.876;10.662;2023-02-15T13:18:04;30.83;;;13.50;;
8532;SDS011;4304;53.876;10.662;2023-02-15T13:20:35;29.98;;;13.98;;
8532;SDS011;4304;53.876;10.662;2023-02-15T13:23:03;33.72;;;13.85;;
8532;SDS011;4304;53.876;10.662;2023-02-15T13:25:44;33.25;;;13.75;;
8532;SDS011;4304;53.876;10.662;2023-02-15T13:28:16;33.30;;;14.65;;
8532;SDS011;4304;53.876;10.662;2023-02-15T13:30:45;32.28;;;14.32;;
8532;SDS011;4304;53.876;10.662;2023-02-15T13:33:16;30.75;;;13.65;;
8532;SDS011;4304;53.876;10.662;2023-02-15T13:41:34;31.88;;;14.23;;
8532;SDS011;4304;53.876;10.662;2023-02-15T13:57:40;30.83;;;14.77;;
8532;SDS011;4304;53.876;10.662;2023-02-15T14:20:07;35.85;;;16.02;;
8532;SDS011;4304;53.876;10.662;2023-02-15T14:22:46;32.63;;;13.95;;
8532;SDS011;4304;53.876;10.662;2023-02-15T14:27:45;30.33;;;13.88;;
8532;SDS011;4304;53.876;10.662;2023-02-15T14:32:54;38.22;;;15.70;;
8532;SDS011;4304;53.876;10.662;2023-02-15T14:35:24;41.55;;;16.77;;
8532;SDS011;4304;53.876;10.662;2023-02-15T14:37:54;41.33;;;16.08;;
8532;SDS011;4304;53.876;10.662;2023-02-15T14:59:26;48.92;;;17.77;;
8532;SDS011;4304;53.876;10.662;2023-02-15T15:01:56;48.03;;;18.63;;
8532;SDS011;4304;53.876;10.662;2023-02-15T15:06:59;46.28;;;17.15;;
8532;SDS011;4304;53.876;10.662;2023-02-15T15:09:29;43.00;;;17.65;;
8532;SDS011;4304;53.876;10.662;2023-02-15T15:12:13;45.75;;;17.25;;
8532;SDS011;4304;53.876;10.662;2023-02-15T15:14:47;48.17;;;18.05;;
8532;SDS011;4304;53.876;10.662;2023-02-15T15:17:51;50.20;;;19.83;;
8532;SDS011;4304;53.876;10.662;2023-02-15T15:22:50;49.83;;;19.40;;
8532;SDS011;4304;53.876;10.662;2023-02-15T15:25:45;49.40;;;19.05;;
8532;SDS011;4304;53.876;10.662;2023-02-15T15:31:02;47.80;;;18.13;;
8532;SDS011;4304;53.876;10.662;2023-02-15T15:33:46;44.42;;;18.65;;
8532;SDS011;4304;53.876;10.662;2023-02-15T15:36:32;56.47;;;18.50;;
8532;SDS011;4304;53.876;10.662;2023-02-15T15:42:11;52.88;;;19.48;;
8532;SDS011;4304;53.876;10.662;2023-02-15T15:50:27;56.75;;;19.45;;
8532;SDS011;4304;53.876;10.662;2023-02-15T15:52:57;55.45;;;21.10;;
8532;SDS011;4304;53.876;10.662;2023-02-15T15:55:25;55.60;;;20.65;;
8532;SDS011;4304;53.876;10.662;2023-02-15T15:57:55;57.03;;;20.70;;
8532;SDS011;4304;53.876;10.662;2023-02-15T16:00:25;46.00;;;19.48;;
8532;SDS011;4304;53.876;10.662;2023-02-15T16:02:53;46.47;;;20.85;;
8532;SDS011;4304;53.876;10.662;2023-02-15T16:05:20;60.58;;;21.23;;
8532;SDS011;4304;53.876;10.662;2023-02-15T16:07:45;59.25;;;20.67;;
8532;SDS011;4304;53.876;10.662;2023-02-15T16:10:21;60.97;;;20.63;;
8532;SDS011;4304;53.876;10.662;2023-02-15T16:12:48;70.63;;;20.63;;
8532;SDS011;4304;53.876;10.662;2023-02-15T16:15:21;71.03;;;25.55;;
8532;SDS011;4304;53.876;10.662;2023-02-15T16:17:50;80.07;;;21.20;;
8532;SDS011;4304;53.876;10.662;2023-02-15T16:20:22;59.50;;;18.77;;
8532;SDS011;4304;53.876;10.662;2023-02-15T16:22:57;72.05;;;20.38;;
8532;SDS011;4304;53.876;10.662;2023-02-15T16:25:26;55.08;;;18.90;;
8532;SDS011;4304;53.876;10.662;2023-02-15T16:28:16;47.10;;;19.38;;
8532;SDS011;4304;53.876;10.662;2023-02-15T16:30:43;55.13;;;20.40;;
8532;SDS011;4304;53.876;10.662;2023-02-15T16:33:10;49.40;;;19.63;;
8532;SDS011;4304;53.876;10.662;2023-02-15T16:35:38;61.85;;;20.73;;
8532;SDS011;4304;53.876;10.662;2023-02-15T16:38:05;87.47;;;19.63;;
8532;SDS011;4304;53.876;10.662;2023-02-15T16:40:41;74.57;;;20.27;;
8532;SDS011;4304;53.876;10.662;2023-02-15T16:43:15;60.42;;;20.60;;
8532;SDS011;4304;53.876;10.662;2023-02-15T16:45:44;63.40;;;20.65;;
8532;SDS011;4304;53.876;10.662;2023-02-15T16:48:12;71.25;;;19.63;;
8532;SDS011;4304;53.876;10.662;2023-02-15T16:50:45;69.05;;;18.27;;
8532;SDS011;4304;53.876;10.662;2023-02-15T16:53:14;93.38;;;20.13;;
8532;SDS011;4304;53.876;10.662;2023-02-15T16:55:44;119.85;;;19.25;;
8532;SDS011;4304;53.876;10.662;2023-02-15T16:58:15;61.35;;;19.45;;
8532;SDS011;4304;53.876;10.662;2023-02-15T17:00:41;76.95;;;17.33;;
8532;SDS011;4304;53.876;10.662;2023-02-15T17:05:42;97.90;;;20.02;;
8532;SDS011;4304;53.876;10.662;2023-02-15T17:10:45;62.28;;;20.98;;
8532;SDS011;4304;53.876;10.662;2023-02-15T17:13:28;143.80;;;19.05;;
8532;SDS011;4304;53.876;10.662;2023-02-15T17:18:26;66.05;;;18.52;;
8532;SDS011;4304;53.876;10.662;2023-02-15T17:20:53;90.18;;;21.27;;
8532;SDS011;4304;53.876;10.662;2023-02-15T17:23:30;104.60;;;20.63;;
8532;SDS011;4304;53.876;10.662;2023-02-15T17:25:57;72.45;;;18.95;;
8532;SDS011;4304;53.876;10.662;2023-02-15T17:28:25;70.68;;;19.00;;
8532;SDS011;4304;53.876;10.662;2023-02-15T17:30:55;66.55;;;18.20;;
8532;SDS011;4304;53.876;10.662;2023-02-15T17:33:23;91.60;;;19.02;;
8532;SDS011;4304;53.876;10.662;2023-02-15T17:36:04;76.30;;;20.02;;
8532;SDS011;4304;53.876;10.662;2023-02-15T17:38:32;124.82;;;21.02;;
8532;SDS011;4304;53.876;10.662;2023-02-15T17:40:57;109.38;;;21.25;;
8532;SDS011;4304;53.876;10.662;2023-02-15T17:43:26;80.03;;;18.02;;
8532;SDS011;4304;53.876;10.662;2023-02-15T17:45:51;74.30;;;16.63;;
8532;SDS011;4304;53.876;10.662;2023-02-15T17:48:21;47.28;;;16.02;;
8532;SDS011;4304;53.876;10.662;2023-02-15T17:50:47;77.18;;;15.55;;
8532;SDS011;4304;53.876;10.662;2023-02-15T17:53:12;115.65;;;17.52;;
8532;SDS011;4304;53.876;10.662;2023-02-15T17:55:41;74.70;;;16.42;;
8532;SDS011;4304;53.876;10.662;2023-02-15T17:58:16;190.40;;;26.15;;
8532;SDS011;4304;53.876;10.662;2023-02-15T19:17:53;1078.70;;;962.72;;